Time;durP1;ratioP1;P1;durP2;ratioP2;P2;SDS_P1;SDS_P2;PMS_P1;PMS_P2;Temp;Humidity;BMP_temperature;BMP_pressure;BME280_temperature;BME280_humidity;BME280_pressure;Samples;Min_cycle;Max_cycle;Signal;HPM_P1;HPM_P2
2023/07/08 00:00:34;;;;;;;8.95;3.28;;;;;;;;;;5013581;28;94839;-73
2023/07/08 00:03:00;;;;;;;8.68;3.30;;;;;;;;;;5014557;28;93480;-73
2023/07/08 00:05:27;;;;;;;5.68;3.45;;;;;;;;;;5014825;28;92438;-72
2023/07/08 00:07:53;;;;;;;3.80;3.10;;;;;;;;;;5014887;28;93035;-72
2023/07/08 00:10:24;;;;;;;6.97;3.15;;;;;;;;;;5014700;28;94548;-72
2023/07/08 00:12:51;;;;;;;10.38;3.58;;;;;;;;;;5013557;28;92397;-73
2023/07/08 00:15:18;;;;;;;3.72;3.05;;;;;;;;;;5014359;28;92566;-73
2023/07/08 00:17:44;;;;;;;4.05;3.00;;;;;;;;;;5018221;28;92702;-72
2023/07/08 00:20:28;;;;;;;11.05;3.40;;;;;;;;;;5014713;28;93064;-72
2023/07/08 00:22:55;;;;;;;12.55;3.88;;;;;;;;;;5013647;28;93195;-72
2023/07/08 00:25:21;;;;;;;4.90;3.35;;;;;;;;;;5013037;28;94879;-73
2023/07/08 00:27:48;;;;;;;5.18;3.53;;;;;;;;;;5013859;28;96720;-73
2023/07/08 00:30:18;;;;;;;5.55;3.55;;;;;;;;;;5014341;28;93476;-73
2023/07/08 00:32:45;;;;;;;5.72;3.90;;;;;;;;;;5013020;28;92725;-73
2023/07/08 00:35:12;;;;;;;6.03;3.85;;;;;;;;;;5014447;28;93051;-73
2023/07/08 00:37:38;;;;;;;8.18;3.58;;;;;;;;;;5014379;28;93847;-72
2023/07/08 00:40:13;;;;;;;6.40;3.65;;;;;;;;;;5017527;28;92455;-72
2023/07/08 00:42:39;;;;;;;8.45;3.20;;;;;;;;;;5014895;28;92859;-73
2023/07/08 00:45:15;;;;;;;5.95;3.50;;;;;;;;;;5014114;28;92477;-73
2023/07/08 00:47:42;;;;;;;11.27;3.67;;;;;;;;;;5014654;28;94271;-72
2023/07/08 00:50:11;;;;;;;6.95;3.40;;;;;;;;;;5012575;28;97188;-73
2023/07/08 00:52:37;;;;;;;9.18;3.75;;;;;;;;;;5014150;28;92422;-72
2023/07/08 00:55:05;;;;;;;4.45;3.10;;;;;;;;;;5014088;28;93345;-72
2023/07/08 00:57:34;;;;;;;5.97;3.65;;;;;;;;;;5013939;28;93606;-73
2023/07/08 01:00:04;;;;;;;5.57;3.58;;;;;;;;;;5014116;28;92487;-72
2023/07/08 01:02:34;;;;;;;9.85;3.47;;;;;;;;;;5017089;28;93094;-73
2023/07/08 01:05:11;;;;;;;6.07;3.28;;;;;;;;;;5017159;28;92475;-72
2023/07/08 01:07:38;;;;;;;7.30;3.47;;;;;;;;;;5018046;28;93405;-72
2023/07/08 01:10:07;;;;;;;9.52;4.07;;;;;;;;;;5017525;28;94610;-73
2023/07/08 01:12:36;;;;;;;7.22;3.90;;;;;;;;;;5017543;28;92459;-73
2023/07/08 01:15:04;;;;;;;7.25;3.38;;;;;;;;;;5015054;28;94915;-72
2023/07/08 01:17:33;;;;;;;6.25;3.38;;;;;;;;;;5017693;28;93401;-73
2023/07/08 01:20:00;;;;;;;10.05;3.97;;;;;;;;;;5017141;28;92777;-72
2023/07/08 01:22:32;;;;;;;7.13;3.28;;;;;;;;;;5017622;28;94260;-73
2023/07/08 01:25:03;;;;;;;17.77;3.95;;;;;;;;;;5020483;28;93574;-73
2023/07/08 01:27:30;;;;;;;11.13;3.92;;;;;;;;;;5017206;28;94302;-72
2023/07/08 01:29:58;;;;;;;7.32;3.15;;;;;;;;;;5016781;28;93791;-73
2023/07/08 01:32:24;;;;;;;6.40;3.35;;;;;;;;;;5017594;28;92130;-73
2023/07/08 01:35:01;;;;;;;8.27;3.90;;;;;;;;;;5017456;28;93806;-72
2023/07/08 01:37:39;;;;;;;9.07;3.50;;;;;;;;;;5017395;28;94723;-73
2023/07/08 01:40:16;;;;;;;8.55;3.15;;;;;;;;;;5015475;28;94830;-73
2023/07/08 01:42:42;;;;;;;7.03;3.65;;;;;;;;;;5016925;28;95580;-73
2023/07/08 01:45:12;;;;;;;11.93;3.45;;;;;;;;;;5016508;28;93495;-73
2023/07/08 01:47:39;;;;;;;8.63;3.53;;;;;;;;;;5020029;28;92442;-73
2023/07/08 01:50:06;;;;;;;7.47;3.80;;;;;;;;;;5016678;28;93615;-73
2023/07/08 01:52:33;;;;;;;6.20;3.58;;;;;;;;;;5017040;28;92460;-73
2023/07/08 01:54:59;;;;;;;9.77;3.78;;;;;;;;;;5017045;28;93358;-73
2023/07/08 01:57:25;;;;;;;4.78;3.50;;;;;;;;;;5016914;28;91742;-73
2023/07/08 01:59:52;;;;;;;4.45;3.13;;;;;;;;;;5016991;28;92748;-73
2023/07/08 02:02:18;;;;;;;8.73;3.47;;;;;;;;;;5016735;28;93393;-73
2023/07/08 02:04:44;;;;;;;6.25;3.63;;;;;;;;;;5014875;28;95956;-73
2023/07/08 02:07:11;;;;;;;4.63;3.38;;;;;;;;;;5019877;28;92396;-73
2023/07/08 02:09:37;;;;;;;5.38;3.75;;;;;;;;;;5016577;28;94599;-73
2023/07/08 02:12:04;;;;;;;6.97;3.78;;;;;;;;;;5016443;28;92384;-73
2023/07/08 02:14:30;;;;;;;7.15;3.70;;;;;;;;;;5016089;28;92410;-73
2023/07/08 02:16:57;;;;;;;4.40;3.45;;;;;;;;;;5015759;28;93291;-73
2023/07/08 02:19:23;;;;;;;8.55;3.90;;;;;;;;;;5016649;28;92412;-73
2023/07/08 02:21:51;;;;;;;9.40;3.70;;;;;;;;;;5016969;28;93326;-73
2023/07/08 02:24:18;;;;;;;16.08;3.95;;;;;;;;;;5016121;28;93331;-73
2023/07/08 02:26:47;;;;;;;7.93;3.65;;;;;;;;;;5014681;28;92927;-73
2023/07/08 02:29:13;;;;;;;7.40;3.78;;;;;;;;;;5017665;28;96070;-73
2023/07/08 02:31:40;;;;;;;12.98;4.43;;;;;;;;;;5016367;28;92470;-73
2023/07/08 02:34:06;;;;;;;3.75;3.45;;;;;;;;;;5016207;28;93195;-73
2023/07/08 02:36:34;;;;;;;6.90;3.75;;;;;;;;;;5015989;28;93439;-73
2023/07/08 02:39:00;;;;;;;8.80;3.83;;;;;;;;;;5015989;28;92477;-73
2023/07/08 02:41:26;;;;;;;13.07;3.92;;;;;;;;;;5016198;28;93212;-73
2023/07/08 02:43:53;;;;;;;7.80;3.65;;;;;;;;;;5015880;28;92447;-73
2023/07/08 02:46:19;;;;;;;5.80;3.47;;;;;;;;;;5016420;28;92064;-73
2023/07/08 02:48:45;;;;;;;6.25;3.92;;;;;;;;;;5016383;28;92648;-73
2023/07/08 02:51:12;;;;;;;7.07;3.90;;;;;;;;;;5017547;28;93463;-73
2023/07/08 02:53:38;;;;;;;10.10;4.03;;;;;;;;;;5014532;28;94786;-73
2023/07/08 02:56:05;;;;;;;6.10;3.83;;;;;;;;;;5015884;28;93549;-72
2023/07/08 02:58:31;;;;;;;7.82;4.30;;;;;;;;;;5015994;28;92526;-72
2023/07/08 03:01:00;;;;;;;4.25;3.83;;;;;;;;;;5015845;28;94176;-73
2023/07/08 03:03:30;;;;;;;6.35;4.22;;;;;;;;;;5015777;28;94630;-72
2023/07/08 03:06:02;;;;;;;9.80;4.07;;;;;;;;;;5015968;28;92477;-72
2023/07/08 03:08:29;;;;;;;9.95;4.80;;;;;;;;;;5015892;28;92344;-73
2023/07/08 03:10:57;;;;;;;7.55;4.22;;;;;;;;;;5015955;28;93026;-73
2023/07/08 03:13:24;;;;;;;7.50;4.15;;;;;;;;;;5019107;28;92494;-72
2023/07/08 03:15:51;;;;;;;7.03;4.05;;;;;;;;;;5015383;28;93486;-73
2023/07/08 03:18:17;;;;;;;9.30;4.10;;;;;;;;;;5014734;28;94833;-72
2023/07/08 03:20:47;;;;;;;8.10;4.22;;;;;;;;;;5015531;28;95996;-72
2023/07/08 03:23:13;;;;;;;8.93;4.30;;;;;;;;;;5015487;28;93695;-73
2023/07/08 03:25:39;;;;;;;11.18;4.03;;;;;;;;;;5014163;28;92661;-72
2023/07/08 03:28:07;;;;;;;5.95;4.32;;;;;;;;;;5014634;28;92372;-72
2023/07/08 03:30:34;;;;;;;4.50;4.10;;;;;;;;;;5015069;28;93664;-72
2023/07/08 03:33:00;;;;;;;13.57;4.50;;;;;;;;;;5015282;28;92777;-72
2023/07/08 03:35:26;;;;;;;7.80;4.22;;;;;;;;;;5018170;28;93201;-73
2023/07/08 03:37:53;;;;;;;11.13;4.53;;;;;;;;;;5015213;28;92500;-73
2023/07/08 03:40:19;;;;;;;26.60;4.95;;;;;;;;;;5015103;28;93200;-72
2023/07/08 03:42:45;;;;;;;6.20;4.40;;;;;;;;;;5013299;28;95919;-72
2023/07/08 03:45:12;;;;;;;6.80;4.57;;;;;;;;;;5014641;28;92542;-72
2023/07/08 03:47:38;;;;;;;6.38;4.50;;;;;;;;;;5015103;28;93481;-73
2023/07/08 03:50:05;;;;;;;12.48;4.65;;;;;;;;;;5014739;28;93245;-73
2023/07/08 03:52:31;;;;;;;11.40;4.32;;;;;;;;;;5014936;28;94369;-72
2023/07/08 03:54:58;;;;;;;8.55;4.95;;;;;;;;;;5018012;28;92973;-73
2023/07/08 03:57:24;;;;;;;12.57;4.80;;;;;;;;;;5014760;28;92420;-72
2023/07/08 03:59:51;;;;;;;8.27;4.40;;;;;;;;;;5015675;28;94236;-72
2023/07/08 04:02:17;;;;;;;5.82;4.13;;;;;;;;;;5014503;28;94293;-73
2023/07/08 04:04:44;;;;;;;10.10;4.63;;;;;;;;;;5014940;28;92449;-72
2023/07/08 04:07:12;;;;;;;11.27;4.93;;;;;;;;;;5012998;28;94798;-73
2023/07/08 04:09:38;;;;;;;8.05;4.40;;;;;;;;;;5014680;28;93618;-72
2023/07/08 04:12:05;;;;;;;11.82;4.35;;;;;;;;;;5014651;28;92858;-72
2023/07/08 04:14:31;;;;;;;8.98;4.45;;;;;;;;;;5014581;28;93323;-72
2023/07/08 04:16:58;;;;;;;8.77;4.43;;;;;;;;;;5017345;28;94447;-72
2023/07/08 04:19:26;;;;;;;7.50;4.45;;;;;;;;;;5014718;28;93338;-72
2023/07/08 04:21:53;;;;;;;7.05;4.45;;;;;;;;;;5014121;28;93291;-73
2023/07/08 04:24:20;;;;;;;17.00;4.68;;;;;;;;;;5014952;28;92018;-73
2023/07/08 04:26:47;;;;;;;9.98;4.93;;;;;;;;;;5013499;28;92755;-73
2023/07/08 04:29:17;;;;;;;8.60;3.92;;;;;;;;;;5014077;28;93898;-72
2023/07/08 04:31:44;;;;;;;10.57;4.40;;;;;;;;;;5012673;28;95035;-73
2023/07/08 04:34:11;;;;;;;10.38;4.75;;;;;;;;;;5014249;28;95646;-73
2023/07/08 04:36:37;;;;;;;4.82;4.25;;;;;;;;;;5013866;28;93581;-72
2023/07/08 04:39:04;;;;;;;6.40;4.47;;;;;;;;;;5016531;28;92544;-72
2023/07/08 04:41:31;;;;;;;11.95;4.88;;;;;;;;;;5013932;28;94053;-73
2023/07/08 04:44:02;;;;;;;7.32;4.28;;;;;;;;;;5014246;28;92431;-72
2023/07/08 04:46:37;;;;;;;9.05;4.60;;;;;;;;;;5014714;28;95690;-72
2023/07/08 04:49:05;;;;;;;6.85;4.38;;;;;;;;;;5014355;28;92677;-72
2023/07/08 04:51:31;;;;;;;5.05;4.28;;;;;;;;;;5013932;28;92475;-72
2023/07/08 04:53:58;;;;;;;6.55;4.40;;;;;;;;;;5014056;28;93189;-72
2023/07/08 04:56:39;;;;;;;19.55;4.97;;;;;;;;;;5012349;28;96904;-73
2023/07/08 04:59:07;;;;;;;8.18;4.38;;;;;;;;;;5014098;28;92577;-72
2023/07/08 05:01:33;;;;;;;5.47;4.43;;;;;;;;;;5016993;28;94315;-73
2023/07/08 05:04:00;;;;;;;17.35;5.07;;;;;;;;;;5014275;28;92732;-73
2023/07/08 05:06:27;;;;;;;8.05;4.70;;;;;;;;;;5012817;28;93570;-73
2023/07/08 05:08:53;;;;;;;6.32;4.53;;;;;;;;;;5013681;28;93455;-72
2023/07/08 05:11:20;;;;;;;10.95;4.60;;;;;;;;;;5013401;28;92603;-73
2023/07/08 05:13:46;;;;;;;7.07;4.13;;;;;;;;;;5014372;28;93169;-73
2023/07/08 05:16:12;;;;;;;7.53;4.68;;;;;;;;;;5013686;28;93364;-72
2023/07/08 05:18:39;;;;;;;6.25;4.25;;;;;;;;;;5014090;28;92446;-73
2023/07/08 05:21:06;;;;;;;8.27;4.50;;;;;;;;;;5010752;28;94833;-72
2023/07/08 05:23:32;;;;;;;13.35;4.47;;;;;;;;;;5016703;28;94450;-72
2023/07/08 05:26:00;;;;;;;8.57;4.47;;;;;;;;;;5013510;28;93227;-73
2023/07/08 05:28:26;;;;;;;5.03;4.00;;;;;;;;;;5012987;28;93849;-72
2023/07/08 05:30:54;;;;;;;10.95;4.53;;;;;;;;;;5013536;28;92399;-72
2023/07/08 05:33:24;;;;;;;11.43;4.45;;;;;;;;;;5013473;28;93261;-72
2023/07/08 05:35:51;;;;;;;16.55;3.78;;;;;;;;;;5013603;28;94617;-73
2023/07/08 05:38:17;;;;;;;9.50;4.10;;;;;;;;;;5013495;28;91741;-72
2023/07/08 05:40:49;;;;;;;13.88;4.18;;;;;;;;;;5013784;28;92412;-72
2023/07/08 05:43:16;;;;;;;10.90;4.53;;;;;;;;;;5013200;28;93463;-72
2023/07/08 05:45:42;;;;;;;9.30;4.43;;;;;;;;;;5014823;28;94874;-72
2023/07/08 05:48:09;;;;;;;13.43;5.43;;;;;;;;;;5031526;28;93511;-73
2023/07/08 05:50:36;;;;;;;7.70;4.07;;;;;;;;;;5035860;27;92378;-73
2023/07/08 05:53:02;;;;;;;9.68;4.13;;;;;;;;;;5036440;27;93149;-73
2023/07/08 05:55:29;;;;;;;15.98;4.43;;;;;;;;;;5036974;27;92460;-72
2023/07/08 05:57:55;;;;;;;12.85;4.03;;;;;;;;;;5036927;27;92471;-73
2023/07/08 06:00:21;;;;;;;6.95;4.32;;;;;;;;;;5037274;28;96364;-72
2023/07/08 06:03:02;;;;;;;12.95;4.35;;;;;;;;;;5036953;27;92633;-73
2023/07/08 06:05:29;;;;;;;7.60;4.00;;;;;;;;;;5039898;27;92830;-73
2023/07/08 06:07:55;;;;;;;12.38;4.20;;;;;;;;;;5035242;28;93445;-73
2023/07/08 06:10:22;;;;;;;9.32;3.80;;;;;;;;;;5034284;27;95118;-73
2023/07/08 06:12:48;;;;;;;6.43;3.70;;;;;;;;;;5016062;28;95633;-73
2023/07/08 06:15:14;;;;;;;6.63;3.70;;;;;;;;;;5016453;28;93532;-73
2023/07/08 06:17:41;;;;;;;14.68;4.10;;;;;;;;;;5016610;28;92924;-73
2023/07/08 06:20:07;;;;;;;8.05;4.15;;;;;;;;;;5016262;28;93108;-73
2023/07/08 06:22:34;;;;;;;10.00;3.92;;;;;;;;;;5016325;28;93276;-73
2023/07/08 06:25:03;;;;;;;13.35;3.53;;;;;;;;;;5016708;28;92621;-73
2023/07/08 06:27:30;;;;;;;12.68;3.97;;;;;;;;;;5019124;28;93405;-73
2023/07/08 06:29:56;;;;;;;8.00;3.00;;;;;;;;;;5016400;28;92871;-73
2023/07/08 06:32:22;;;;;;;6.97;3.92;;;;;;;;;;5015547;28;93225;-73
2023/07/08 06:34:49;;;;;;;4.82;3.30;;;;;;;;;;5014672;28;96808;-73
2023/07/08 06:37:15;;;;;;;21.58;4.25;;;;;;;;;;5016100;28;92481;-73
2023/07/08 06:39:42;;;;;;;4.43;3.35;;;;;;;;;;5015772;28;93194;-73
2023/07/08 06:42:08;;;;;;;12.48;3.40;;;;;;;;;;5015912;28;93469;-73
2023/07/08 06:44:34;;;;;;;11.40;3.20;;;;;;;;;;5015936;28;93685;-73
2023/07/08 06:47:01;;;;;;;11.00;2.92;;;;;;;;;;5015819;28;92526;-73
2023/07/08 06:49:27;;;;;;;5.68;2.85;;;;;;;;;;5018864;28;93509;-73
2023/07/08 06:51:53;;;;;;;3.97;3.00;;;;;;;;;;5016263;28;93438;-73
2023/07/08 06:54:20;;;;;;;6.43;3.03;;;;;;;;;;5016130;28;93506;-73
2023/07/08 06:56:46;;;;;;;3.97;2.58;;;;;;;;;;5015827;28;92485;-73
2023/07/08 06:59:12;;;;;;;5.63;2.65;;;;;;;;;;5013099;28;94880;-73
2023/07/08 07:01:39;;;;;;;3.25;2.95;;;;;;;;;;5014714;28;93757;-73
2023/07/08 07:04:05;;;;;;;5.13;3.15;;;;;;;;;;5015655;28;92463;-72
2023/07/08 07:06:32;;;;;;;6.68;3.00;;;;;;;;;;5015681;28;93597;-73
2023/07/08 07:08:58;;;;;;;9.48;3.05;;;;;;;;;;5015285;28;93510;-73
2023/07/08 07:11:25;;;;;;;6.68;2.95;;;;;;;;;;5018602;28;92605;-72
2023/07/08 07:13:51;;;;;;;5.03;3.05;;;;;;;;;;5015336;28;93572;-73
2023/07/08 07:16:18;;;;;;;6.75;2.90;;;;;;;;;;5015890;28;91818;-73
2023/07/08 07:18:45;;;;;;;7.63;3.03;;;;;;;;;;5014211;28;92370;-73
2023/07/08 07:21:11;;;;;;;5.85;3.20;;;;;;;;;;5014163;28;94315;-72
2023/07/08 07:23:37;;;;;;;5.25;2.80;;;;;;;;;;5013562;28;94860;-72
2023/07/08 07:26:04;;;;;;;5.13;3.30;;;;;;;;;;5015043;28;95591;-72
2023/07/08 07:28:30;;;;;;;7.28;2.75;;;;;;;;;;5013577;28;93497;-73
2023/07/08 07:30:57;;;;;;;4.90;3.00;;;;;;;;;;5015304;28;92596;-72
2023/07/08 07:33:24;;;;;;;6.03;2.85;;;;;;;;;;5018138;28;93216;-72
2023/07/08 07:35:50;;;;;;;7.32;2.63;;;;;;;;;;5015232;28;92466;-73
2023/07/08 07:38:17;;;;;;;3.88;2.83;;;;;;;;;;5014997;28;93285;-73
2023/07/08 07:40:43;;;;;;;5.78;2.95;;;;;;;;;;5015489;28;92868;-73
2023/07/08 07:43:10;;;;;;;6.78;2.75;;;;;;;;;;5014783;28;92470;-73
2023/07/08 07:45:36;;;;;;;6.90;3.00;;;;;;;;;;5014991;28;93260;-73
2023/07/08 07:48:03;;;;;;;6.85;2.72;;;;;;;;;;5013298;28;96017;-73
2023/07/08 07:50:30;;;;;;;4.78;3.40;;;;;;;;;;5015159;28;92403;-73
2023/07/08 07:52:56;;;;;;;9.55;3.28;;;;;;;;;;5013680;28;94666;-73
2023/07/08 07:55:23;;;;;;;6.20;3.30;;;;;;;;;;5017605;28;94472;-73
2023/07/08 07:57:49;;;;;;;6.82;3.15;;;;;;;;;;5014776;28;93519;-74
2023/07/08 08:00:15;;;;;;;4.53;3.00;;;;;;;;;;5014689;28;93831;-73
2023/07/08 08:02:42;;;;;;;5.05;3.17;;;;;;;;;;5014625;28;92523;-73
2023/07/08 08:05:08;;;;;;;5.68;3.17;;;;;;;;;;5015181;28;93197;-73
2023/07/08 08:07:36;;;;;;;4.47;3.28;;;;;;;;;;5014510;28;93584;-73
2023/07/08 08:10:03;;;;;;;7.25;3.20;;;;;;;;;;5014710;28;92775;-73
2023/07/08 08:12:29;;;;;;;6.85;3.08;;;;;;;;;;5012762;28;95262;-73
2023/07/08 08:15:06;;;;;;;11.70;3.45;;;;;;;;;;5017790;28;93439;-73
2023/07/08 08:17:32;;;;;;;7.70;3.33;;;;;;;;;;5014696;28;93350;-73
2023/07/08 08:19:59;;;;;;;7.75;2.90;;;;;;;;;;5014190;28;94209;-73
2023/07/08 08:22:25;;;;;;;11.20;3.53;;;;;;;;;;5013454;28;92570;-73
2023/07/08 08:24:52;;;;;;;6.78;2.92;;;;;;;;;;5014032;28;93274;-73
2023/07/08 08:27:18;;;;;;;9.45;3.50;;;;;;;;;;5012551;28;93589;-73
2023/07/08 08:29:44;;;;;;;11.27;3.65;;;;;;;;;;5015006;28;91719;-73
2023/07/08 08:32:11;;;;;;;7.18;2.97;;;;;;;;;;5014312;28;92627;-73
2023/07/08 08:34:37;;;;;;;6.28;3.85;;;;;;;;;;5013703;28;93518;-73
2023/07/08 08:37:04;;;;;;;10.05;4.22;;;;;;;;;;5015532;28;94847;-73
2023/07/08 08:39:30;;;;;;;5.72;3.58;;;;;;;;;;5014350;28;95745;-73
2023/07/08 08:41:57;;;;;;;9.68;3.50;;;;;;;;;;5014174;28;92434;-73
2023/07/08 08:44:34;;;;;;;5.13;3.20;;;;;;;;;;5013721;28;93357;-73
2023/07/08 08:47:12;;;;;;;11.73;3.45;;;;;;;;;;5014143;28;93482;-73
2023/07/08 08:49:41;;;;;;;9.73;4.38;;;;;;;;;;5013836;28;92426;-73
2023/07/08 08:52:08;;;;;;;8.82;3.92;;;;;;;;;;5013484;28;93209;-73
2023/07/08 08:54:41;;;;;;;8.32;3.75;;;;;;;;;;5014315;28;91856;-73
2023/07/08 08:57:15;;;;;;;10.35;4.30;;;;;;;;;;5014018;28;92506;-73
2023/07/08 08:59:53;;;;;;;9.52;3.95;;;;;;;;;;5016686;28;93746;-73
2023/07/08 09:02:25;;;;;;;9.23;3.58;;;;;;;;;;5012451;28;94810;-73
2023/07/08 09:04:52;;;;;;;9.05;3.70;;;;;;;;;;5013729;28;95575;-73
2023/07/08 09:07:20;;;;;;;7.20;4.10;;;;;;;;;;5013470;28;93491;-73
2023/07/08 09:10:00;;;;;;;9.13;3.95;;;;;;;;;;5013648;28;92482;-73
2023/07/08 09:12:28;;;;;;;11.48;4.50;;;;;;;;;;5013632;28;93284;-73
2023/07/08 09:14:55;;;;;;;8.48;3.90;;;;;;;;;;5012243;28;93637;-73
2023/07/08 09:17:34;;;;;;;12.02;4.63;;;;;;;;;;5014006;28;92548;-73
2023/07/08 09:20:03;;;;;;;10.68;5.00;;;;;;;;;;5014278;28;94370;-73
2023/07/08 09:22:35;;;;;;;10.45;4.57;;;;;;;;;;5016595;28;93485;-73
2023/07/08 09:25:01;;;;;;;10.65;4.53;;;;;;;;;;5015187;28;93384;-73
2023/07/08 09:27:28;;;;;;;7.32;4.20;;;;;;;;;;5014787;28;96880;-73
2023/07/08 09:29:55;;;;;;;12.18;5.15;;;;;;;;;;5017373;28;92520;-73
2023/07/08 09:32:23;;;;;;;8.38;4.85;;;;;;;;;;5016970;28;93629;-73
2023/07/08 09:34:50;;;;;;;8.48;4.10;;;;;;;;;;5016911;28;92417;-74
2023/07/08 09:37:26;;;;;;;4.88;4.00;;;;;;;;;;5017140;28;92425;-74
2023/07/08 09:39:53;;;;;;;6.68;4.78;;;;;;;;;;5016633;28;93436;-73
2023/07/08 09:42:21;;;;;;;7.40;4.72;;;;;;;;;;5016685;28;93634;-73
2023/07/08 09:44:48;;;;;;;7.38;4.90;;;;;;;;;;5020408;28;91667;-73
2023/07/08 09:47:30;;;;;;;8.52;4.75;;;;;;;;;;5017128;28;92454;-73
2023/07/08 09:49:57;;;;;;;10.93;5.20;;;;;;;;;;5016857;28;92533;-73
2023/07/08 09:52:24;;;;;;;12.00;5.07;;;;;;;;;;5015039;28;94796;-73
2023/07/08 09:54:50;;;;;;;8.80;4.72;;;;;;;;;;5015710;28;93914;-73
2023/07/08 09:57:19;;;;;;;7.53;4.78;;;;;;;;;;5016752;28;92396;-73
2023/07/08 09:59:46;;;;;;;9.77;4.23;;;;;;;;;;5015678;28;94265;-73
2023/07/08 10:02:27;;;;;;;8.35;4.72;;;;;;;;;;4996453;28;93630;-73
2023/07/08 10:04:56;;;;;;;12.15;4.60;;;;;;;;;;4996399;28;92463;-73
2023/07/08 10:07:23;;;;;;;8.20;5.18;;;;;;;;;;4999497;28;92704;-73
2023/07/08 10:09:54;;;;;;;12.55;5.28;;;;;;;;;;4996969;28;91820;-73
2023/07/08 10:12:21;;;;;;;8.73;5.70;;;;;;;;;;5013500;28;92444;-73
2023/07/08 10:14:52;;;;;;;13.10;4.95;;;;;;;;;;5015977;28;93876;-73
2023/07/08 10:17:19;;;;;;;15.43;5.03;;;;;;;;;;5015336;28;95251;-73
2023/07/08 10:19:45;;;;;;;8.52;5.32;;;;;;;;;;5016271;28;95605;-74
2023/07/08 10:22:31;;;;;;;11.55;4.80;;;;;;;;;;5016150;28;93507;-73
2023/07/08 10:25:13;;;;;;;9.48;5.10;;;;;;;;;;5016049;28;92434;-73
2023/07/08 10:27:57;;;;;;;8.40;4.70;;;;;;;;;;5018966;28;93150;-74
2023/07/08 10:30:29;;;;;;;8.27;4.65;;;;;;;;;;5016180;28;92566;-73
2023/07/08 10:33:08;;;;;;;17.55;5.88;;;;;;;;;;5016211;28;92432;-73
2023/07/08 10:35:36;;;;;;;7.78;5.05;;;;;;;;;;5015948;28;92914;-73
2023/07/08 10:38:23;;;;;;;7.55;5.07;;;;;;;;;;5015676;28;92425;-73
2023/07/08 10:40:53;;;;;;;11.02;5.30;;;;;;;;;;5016045;28;92352;-74
2023/07/08 10:43:38;;;;;;;7.13;4.63;;;;;;;;;;5012775;28;95875;-73
2023/07/08 10:46:04;;;;;;;9.90;5.93;;;;;;;;;;5015896;28;92468;-74
2023/07/08 10:48:49;;;;;;;10.50;5.15;;;;;;;;;;5015927;28;93163;-74
2023/07/08 10:51:22;;;;;;;10.00;5.55;;;;;;;;;;5018540;28;93409;-73
2023/07/08 10:53:58;;;;;;;10.55;5.30;;;;;;;;;;5015668;28;93194;-73
2023/07/08 10:56:37;;;;;;;13.15;5.43;;;;;;;;;;5015564;28;93655;-73
2023/07/08 10:59:15;;;;;;;10.40;5.07;;;;;;;;;;5015762;28;92381;-73
2023/07/08 11:01:50;;;;;;;8.98;5.28;;;;;;;;;;5016288;28;93336;-73
2023/07/08 11:04:36;;;;;;;10.40;5.05;;;;;;;;;;5015878;28;96513;-73
2023/07/08 11:07:12;;;;;;;8.82;5.30;;;;;;;;;;5015794;28;92833;-73
2023/07/08 11:09:45;;;;;;;15.23;5.80;;;;;;;;;;5013699;28;95474;-73
2023/07/08 11:12:23;;;;;;;12.93;6.03;;;;;;;;;;5015314;28;93647;-73
2023/07/08 11:14:51;;;;;;;15.82;6.05;;;;;;;;;;5018587;28;92437;-73
2023/07/08 11:17:26;;;;;;;18.13;5.38;;;;;;;;;;5015570;28;93433;-73
2023/07/08 11:20:01;;;;;;;8.18;5.30;;;;;;;;;;5015383;28;92467;-74
2023/07/08 11:22:29;;;;;;;6.93;5.60;;;;;;;;;;5015515;28;93135;-73
2023/07/08 11:24:57;;;;;;;8.02;5.80;;;;;;;;;;5015072;28;92592;-73
2023/07/08 11:27:30;;;;;;;12.02;5.97;;;;;;;;;;5015574;28;91719;-74
2023/07/08 11:30:03;;;;;;;8.32;5.93;;;;;;;;;;5015332;28;92408;-73
2023/07/08 11:32:30;;;;;;;10.05;5.38;;;;;;;;;;5014903;28;93595;-74
2023/07/08 11:34:58;;;;;;;8.55;5.63;;;;;;;;;;5013381;28;94826;-73
2023/07/08 11:37:25;;;;;;;14.20;6.38;;;;;;;;;;5016940;28;95444;-74
2023/07/08 11:39:58;;;;;;;10.52;6.45;;;;;;;;;;5015191;28;92399;-74
2023/07/08 11:42:30;;;;;;;12.82;5.78;;;;;;;;;;5014948;28;93363;-73
2023/07/08 11:44:57;;;;;;;12.07;5.43;;;;;;;;;;5014373;28;93447;-74
2023/07/08 11:47:38;;;;;;;13.70;5.78;;;;;;;;;;5013803;28;92458;-74
2023/07/08 11:50:12;;;;;;;12.65;6.15;;;;;;;;;;5015122;28;93419;-74
2023/07/08 11:52:49;;;;;;;11.43;6.05;;;;;;;;;;5015337;28;92891;-74
2023/07/08 11:55:20;;;;;;;9.15;5.20;;;;;;;;;;5014981;28;92667;-74
2023/07/08 11:57:52;;;;;;;9.98;5.95;;;;;;;;;;5014904;28;92976;-74
2023/07/08 12:00:22;;;;;;;9.07;5.10;;;;;;;;;;5016020;28;94854;-74
2023/07/08 12:02:56;;;;;;;8.70;5.50;;;;;;;;;;5014623;28;94181;-74
2023/07/08 12:05:35;;;;;;;10.05;6.15;;;;;;;;;;5014529;28;92420;-74
2023/07/08 12:08:03;;;;;;;9.27;5.90;;;;;;;;;;5015015;28;92461;-73
2023/07/08 12:10:35;;;;;;;9.75;6.03;;;;;;;;;;5014513;28;92388;-74
2023/07/08 12:13:02;;;;;;;6.47;5.50;;;;;;;;;;5014345;28;97213;-75
2023/07/08 12:15:30;;;;;;;13.18;6.18;;;;;;;;;;5014525;28;92439;-74
2023/07/08 12:18:01;;;;;;;8.88;5.63;;;;;;;;;;5015359;28;93672;-74
2023/07/08 12:20:32;;;;;;;11.15;5.63;;;;;;;;;;5012676;28;92518;-74
2023/07/08 12:23:00;;;;;;;8.10;5.93;;;;;;;;;;5015985;28;92805;-73
2023/07/08 12:25:34;;;;;;;12.20;6.03;;;;;;;;;;5012762;28;95961;-74
2023/07/08 12:28:01;;;;;;;11.35;6.07;;;;;;;;;;5014070;28;92425;-73
2023/07/08 12:30:29;;;;;;;10.73;6.13;;;;;;;;;;5014273;28;92563;-74
2023/07/08 12:32:55;;;;;;;10.98;5.78;;;;;;;;;;5014020;28;94735;-74
2023/07/08 12:35:23;;;;;;;11.02;5.68;;;;;;;;;;5014094;28;92570;-74
2023/07/08 12:37:51;;;;;;;10.75;5.55;;;;;;;;;;5014156;28;93215;-74
2023/07/08 12:40:17;;;;;;;10.10;5.68;;;;;;;;;;5013996;28;93626;-74
2023/07/08 12:42:45;;;;;;;9.35;5.88;;;;;;;;;;5017707;28;91681;-74
2023/07/08 12:45:16;;;;;;;15.20;5.95;;;;;;;;;;5013882;28;93662;-74
2023/07/08 12:47:43;;;;;;;10.27;6.35;;;;;;;;;;5014341;28;92476;-74
2023/07/08 12:50:10;;;;;;;9.75;6.47;;;;;;;;;;5012364;28;94762;-74
2023/07/08 12:52:36;;;;;;;9.07;6.00;;;;;;;;;;5014233;28;92835;-74
2023/07/08 12:55:03;;;;;;;11.05;5.88;;;;;;;;;;5014194;28;92381;-74
2023/07/08 12:57:29;;;;;;;7.97;5.30;;;;;;;;;;5014086;28;93664;-74
2023/07/08 12:59:56;;;;;;;20.90;5.90;;;;;;;;;;5011476;28;93467;-74
2023/07/08 13:02:25;;;;;;;11.85;6.10;;;;;;;;;;5013846;28;92716;-74
2023/07/08 13:04:54;;;;;;;11.55;6.03;;;;;;;;;;5017230;28;96046;-73
2023/07/08 13:07:32;;;;;;;7.88;5.03;;;;;;;;;;5014101;28;91694;-74
2023/07/08 13:09:59;;;;;;;15.50;5.35;;;;;;;;;;5014026;28;92418;-74
2023/07/08 13:12:26;;;;;;;8.43;5.63;;;;;;;;;;5012002;28;93464;-74
2023/07/08 13:14:54;;;;;;;10.25;5.90;;;;;;;;;;5012128;28;94851;-74
2023/07/08 13:17:20;;;;;;;10.65;6.05;;;;;;;;;;5013901;28;95590;-74
2023/07/08 13:19:48;;;;;;;11.05;5.82;;;;;;;;;;5013712;28;93613;-74
2023/07/08 13:22:16;;;;;;;9.88;5.78;;;;;;;;;;5013792;28;92340;-74
2023/07/08 13:24:43;;;;;;;13.70;6.05;;;;;;;;;;5013752;28;92821;-74
2023/07/08 13:27:15;;;;;;;11.63;6.07;;;;;;;;;;5016091;28;94487;-74
2023/07/08 13:29:42;;;;;;;9.05;5.13;;;;;;;;;;5013676;28;93363;-74
2023/07/08 13:32:09;;;;;;;10.82;5.38;;;;;;;;;;5013588;28;93186;-74
2023/07/08 13:34:36;;;;;;;9.70;6.07;;;;;;;;;;5013541;28;92491;-74
2023/07/08 13:37:03;;;;;;;11.63;5.82;;;;;;;;;;5013185;28;93456;-74
2023/07/08 13:39:31;;;;;;;14.70;5.60;;;;;;;;;;5011268;28;96117;-74
2023/07/08 13:41:58;;;;;;;9.38;6.00;;;;;;;;;;5013191;28;92447;-74
2023/07/08 13:44:25;;;;;;;10.32;5.10;;;;;;;;;;5013397;28;93360;-74
2023/07/08 13:46:56;;;;;;;14.27;5.57;;;;;;;;;;5013390;28;93638;-74
2023/07/08 13:49:29;;;;;;;9.43;5.43;;;;;;;;;;5016360;28;92585;-74
2023/07/08 13:52:28;;;;;;;7.85;5.53;;;;;;;;;;5012963;28;93736;-74
2023/07/08 13:54:58;;;;;;;15.85;5.28;;;;;;;;;;5000602;28;92475;-74
2023/07/08 13:57:32;;;;;;;13.95;6.07;;;;;;;;;;5013933;28;93121;-74
2023/07/08 13:59:59;;;;;;;10.25;5.45;;;;;;;;;;5012839;28;94746;-74
2023/07/08 14:02:27;;;;;;;10.70;5.43;;;;;;;;;;5012933;28;92481;-74
2023/07/08 14:04:56;;;;;;;12.37;5.47;;;;;;;;;;5011614;28;94827;-73
2023/07/08 14:07:24;;;;;;;9.83;4.87;;;;;;;;;;5012644;28;93488;-73
2023/07/08 14:09:52;;;;;;;7.03;4.88;;;;;;;;;;5012865;28;92543;-73
2023/07/08 14:12:18;;;;;;;10.05;5.57;;;;;;;;;;5019063;28;93230;-73
2023/07/08 14:14:48;;;;;;;13.32;5.10;;;;;;;;;;5016222;28;92456;-73
2023/07/08 14:17:25;;;;;;;9.82;5.03;;;;;;;;;;5015436;28;93660;-73
2023/07/08 14:19:51;;;;;;;12.10;5.70;;;;;;;;;;5016240;28;93494;-74
2023/07/08 14:22:22;;;;;;;8.82;5.20;;;;;;;;;;5016587;28;91931;-74
2023/07/08 14:24:49;;;;;;;8.95;4.95;;;;;;;;;;5014799;28;92782;-74
2023/07/08 14:27:17;;;;;;;8.43;5.18;;;;;;;;;;5015464;28;93734;-74
2023/07/08 14:29:46;;;;;;;12.20;5.88;;;;;;;;;;5014436;28;94845;-74
2023/07/08 14:32:18;;;;;;;10.47;5.63;;;;;;;;;;5017708;28;97220;-74
2023/07/08 14:35:17;;;;;;;10.70;5.40;;;;;;;;;;5016186;28;92883;-74
2023/07/08 14:37:43;;;;;;;10.43;5.00;;;;;;;;;;5003179;28;93358;-74
2023/07/08 14:40:18;;;;;;;12.48;5.18;;;;;;;;;;5016068;28;93675;-74
2023/07/08 14:42:44;;;;;;;10.30;5.38;;;;;;;;;;5016214;28;92450;-73
2023/07/08 14:45:10;;;;;;;9.68;5.00;;;;;;;;;;5015805;28;92918;-74
2023/07/08 14:47:37;;;;;;;8.75;5.22;;;;;;;;;;5016397;28;92792;-73